sensor_id;sensor_type;location;lat;lon;timestamp;P1;durP1;ratioP1;P2;durP2;ratioP2
261;SDS011;114;48.260;10.988;2022-11-24T00:02:13;5.80;;;2.27;;
261;SDS011;114;48.260;10.988;2022-11-24T00:04:38;4.83;;;2.30;;
261;SDS011;114;48.260;10.988;2022-11-24T00:07:04;5.40;;;2.20;;
261;SDS011;114;48.260;10.988;2022-11-24T00:09:30;9.00;;;3.20;;
261;SDS011;114;48.260;10.988;2022-11-24T00:11:55;3.57;;;1.97;;
261;SDS011;114;48.260;10.988;2022-11-24T00:14:21;7.87;;;2.50;;
261;SDS011;114;48.260;10.988;2022-11-24T00:16:47;7.40;;;2.10;;
261;SDS011;114;48.260;10.988;2022-11-24T00:19:12;9.97;;;2.27;;
261;SDS011;114;48.260;10.988;2022-11-24T00:21:38;16.67;;;2.90;;
261;SDS011;114;48.260;10.988;2022-11-24T00:24:04;10.47;;;2.33;;
261;SDS011;114;48.260;10.988;2022-11-24T00:26:32;6.53;;;2.10;;
261;SDS011;114;48.260;10.988;2022-11-24T00:29:00;6.37;;;2.53;;
261;SDS011;114;48.260;10.988;2022-11-24T00:31:31;6.00;;;2.07;;
261;SDS011;114;48.260;10.988;2022-11-24T00:34:01;27.83;;;2.70;;
261;SDS011;114;48.260;10.988;2022-11-24T00:36:33;16.63;;;4.23;;
261;SDS011;114;48.260;10.988;2022-11-24T00:39:02;5.43;;;2.47;;
261;SDS011;114;48.260;10.988;2022-11-24T00:41:31;10.43;;;2.47;;
261;SDS011;114;48.260;10.988;2022-11-24T00:43:57;3.47;;;1.73;;
261;SDS011;114;48.260;10.988;2022-11-24T00:46:23;2.00;;;1.80;;
261;SDS011;114;48.260;10.988;2022-11-24T00:48:50;14.13;;;2.67;;
261;SDS011;114;48.260;10.988;2022-11-24T00:51:16;2.90;;;2.30;;
261;SDS011;114;48.260;10.988;2022-11-24T00:53:43;3.93;;;2.33;;
261;SDS011;114;48.260;10.988;2022-11-24T00:56:09;3.07;;;1.90;;
261;SDS011;114;48.260;10.988;2022-11-24T00:58:36;3.47;;;1.80;;
261;SDS011;114;48.260;10.988;2022-11-24T01:01:06;8.63;;;2.27;;
261;SDS011;114;48.260;10.988;2022-11-24T01:03:37;4.60;;;1.70;;
261;SDS011;114;48.260;10.988;2022-11-24T01:06:05;7.30;;;2.43;;
261;SDS011;114;48.260;10.988;2022-11-24T01:08:32;6.10;;;2.00;;
261;SDS011;114;48.260;10.988;2022-11-24T01:13:45;5.07;;;1.97;;
261;SDS011;114;48.260;10.988;2022-11-24T01:16:31;5.10;;;1.77;;
261;SDS011;114;48.260;10.988;2022-11-24T01:18:59;6.53;;;2.10;;
261;SDS011;114;48.260;10.988;2022-11-24T01:21:27;5.70;;;2.80;;
261;SDS011;114;48.260;10.988;2022-11-24T01:23:52;2.20;;;2.00;;
261;SDS011;114;48.260;10.988;2022-11-24T01:26:19;5.00;;;1.90;;
261;SDS011;114;48.260;10.988;2022-11-24T01:28:46;6.53;;;2.07;;
261;SDS011;114;48.260;10.988;2022-11-24T01:31:17;3.60;;;2.10;;
261;SDS011;114;48.260;10.988;2022-11-24T01:33:44;6.10;;;2.27;;
261;SDS011;114;48.260;10.988;2022-11-24T01:36:10;11.53;;;2.00;;
261;SDS011;114;48.260;10.988;2022-11-24T01:38:36;13.77;;;1.90;;
261;SDS011;114;48.260;10.988;2022-11-24T01:41:04;1.70;;;1.60;;
261;SDS011;114;48.260;10.988;2022-11-24T01:43:37;3.80;;;1.40;;
261;SDS011;114;48.260;10.988;2022-11-24T01:46:26;8.57;;;1.80;;
261;SDS011;114;48.260;10.988;2022-11-24T01:51:33;2.90;;;1.77;;
261;SDS011;114;48.260;10.988;2022-11-24T01:54:06;2.20;;;2.00;;
261;SDS011;114;48.260;10.988;2022-11-24T01:56:35;3.03;;;1.47;;
261;SDS011;114;48.260;10.988;2022-11-24T01:59:06;2.30;;;1.90;;
261;SDS011;114;48.260;10.988;2022-11-24T02:01:37;12.37;;;2.27;;
261;SDS011;114;48.260;10.988;2022-11-24T02:04:04;3.03;;;1.70;;
261;SDS011;114;48.260;10.988;2022-11-24T02:06:35;4.67;;;1.63;;
261;SDS011;114;48.260;10.988;2022-11-24T02:11:40;3.20;;;1.77;;
261;SDS011;114;48.260;10.988;2022-11-24T02:14:08;4.23;;;1.90;;
261;SDS011;114;48.260;10.988;2022-11-24T02:16:37;7.03;;;1.80;;
261;SDS011;114;48.260;10.988;2022-11-24T02:19:08;2.20;;;1.50;;
261;SDS011;114;48.260;10.988;2022-11-24T02:21:56;3.10;;;1.60;;
261;SDS011;114;48.260;10.988;2022-11-24T02:24:45;2.50;;;1.67;;
261;SDS011;114;48.260;10.988;2022-11-24T02:27:14;4.80;;;1.57;;
261;SDS011;114;48.260;10.988;2022-11-24T02:29:39;3.43;;;1.63;;
261;SDS011;114;48.260;10.988;2022-11-24T02:32:06;1.40;;;1.30;;
261;SDS011;114;48.260;10.988;2022-11-24T02:34:33;2.07;;;1.50;;
261;SDS011;114;48.260;10.988;2022-11-24T02:36:59;2.33;;;1.53;;
261;SDS011;114;48.260;10.988;2022-11-24T02:39:25;3.07;;;1.10;;
261;SDS011;114;48.260;10.988;2022-11-24T02:41:55;3.60;;;1.10;;
261;SDS011;114;48.260;10.988;2022-11-24T02:44:26;3.93;;;1.60;;
261;SDS011;114;48.260;10.988;2022-11-24T02:47:02;3.80;;;1.00;;
261;SDS011;114;48.260;10.988;2022-11-24T02:49:32;5.67;;;1.33;;
261;SDS011;114;48.260;10.988;2022-11-24T02:51:58;2.40;;;1.20;;
261;SDS011;114;48.260;10.988;2022-11-24T02:54:24;1.17;;;0.97;;
261;SDS011;114;48.260;10.988;2022-11-24T02:56:50;2.13;;;0.90;;
261;SDS011;114;48.260;10.988;2022-11-24T02:59:16;1.37;;;1.20;;
261;SDS011;114;48.260;10.988;2022-11-24T03:01:42;0.80;;;0.60;;
261;SDS011;114;48.260;10.988;2022-11-24T03:04:08;3.40;;;1.30;;
261;SDS011;114;48.260;10.988;2022-11-24T03:06:35;1.60;;;0.80;;
261;SDS011;114;48.260;10.988;2022-11-24T03:09:00;1.53;;;0.80;;
261;SDS011;114;48.260;10.988;2022-11-24T03:11:26;8.27;;;1.07;;
261;SDS011;114;48.260;10.988;2022-11-24T03:13:52;1.20;;;0.80;;
261;SDS011;114;48.260;10.988;2022-11-24T03:16:18;2.53;;;1.00;;
261;SDS011;114;48.260;10.988;2022-11-24T03:18:44;3.20;;;0.73;;
261;SDS011;114;48.260;10.988;2022-11-24T03:21:12;2.83;;;0.80;;
261;SDS011;114;48.260;10.988;2022-11-24T03:23:38;2.70;;;0.60;;
261;SDS011;114;48.260;10.988;2022-11-24T03:26:09;0.80;;;0.67;;
261;SDS011;114;48.260;10.988;2022-11-24T03:28:35;1.53;;;0.80;;
261;SDS011;114;48.260;10.988;2022-11-24T03:31:01;1.20;;;0.77;;
261;SDS011;114;48.260;10.988;2022-11-24T03:33:28;3.47;;;0.70;;
261;SDS011;114;48.260;10.988;2022-11-24T03:35:55;4.53;;;2.30;;
261;SDS011;114;48.260;10.988;2022-11-24T03:38:21;5.97;;;1.20;;
261;SDS011;114;48.260;10.988;2022-11-24T03:40:47;2.10;;;0.60;;
261;SDS011;114;48.260;10.988;2022-11-24T03:43:13;1.27;;;0.50;;
261;SDS011;114;48.260;10.988;2022-11-24T03:48:14;4.50;;;0.73;;
261;SDS011;114;48.260;10.988;2022-11-24T03:50:41;2.00;;;0.77;;
261;SDS011;114;48.260;10.988;2022-11-24T03:53:07;2.63;;;0.80;;
261;SDS011;114;48.260;10.988;2022-11-24T03:55:33;1.00;;;0.90;;
261;SDS011;114;48.260;10.988;2022-11-24T03:57:59;4.57;;;0.83;;
261;SDS011;114;48.260;10.988;2022-11-24T04:00:27;2.30;;;0.90;;
261;SDS011;114;48.260;10.988;2022-11-24T04:02:53;3.67;;;1.77;;
261;SDS011;114;48.260;10.988;2022-11-24T04:05:20;4.17;;;1.20;;
261;SDS011;114;48.260;10.988;2022-11-24T04:10:14;2.30;;;0.90;;
261;SDS011;114;48.260;10.988;2022-11-24T04:12:41;2.00;;;0.90;;
261;SDS011;114;48.260;10.988;2022-11-24T04:15:08;1.97;;;1.00;;
261;SDS011;114;48.260;10.988;2022-11-24T04:17:39;6.67;;;1.43;;
261;SDS011;114;48.260;10.988;2022-11-24T04:20:07;4.87;;;0.80;;
261;SDS011;114;48.260;10.988;2022-11-24T04:22:36;2.43;;;1.20;;
261;SDS011;114;48.260;10.988;2022-11-24T04:25:02;1.60;;;0.97;;
261;SDS011;114;48.260;10.988;2022-11-24T04:27:29;3.90;;;1.77;;
261;SDS011;114;48.260;10.988;2022-11-24T04:29:57;2.83;;;1.53;;
261;SDS011;114;48.260;10.988;2022-11-24T04:32:23;1.87;;;1.37;;
261;SDS011;114;48.260;10.988;2022-11-24T04:34:49;2.63;;;1.23;;
261;SDS011;114;48.260;10.988;2022-11-24T04:37:16;2.40;;;1.40;;
261;SDS011;114;48.260;10.988;2022-11-24T04:39:42;2.17;;;1.20;;
261;SDS011;114;48.260;10.988;2022-11-24T04:42:08;5.90;;;1.50;;
261;SDS011;114;48.260;10.988;2022-11-24T04:44:34;3.63;;;1.50;;
261;SDS011;114;48.260;10.988;2022-11-24T04:47:00;7.30;;;2.03;;
261;SDS011;114;48.260;10.988;2022-11-24T04:49:26;9.50;;;3.20;;
261;SDS011;114;48.260;10.988;2022-11-24T04:51:53;17.73;;;3.37;;
261;SDS011;114;48.260;10.988;2022-11-24T04:54:18;8.30;;;2.40;;
261;SDS011;114;48.260;10.988;2022-11-24T04:56:44;9.33;;;4.00;;
261;SDS011;114;48.260;10.988;2022-11-24T04:59:16;6.40;;;3.90;;
261;SDS011;114;48.260;10.988;2022-11-24T05:01:42;5.53;;;3.00;;
261;SDS011;114;48.260;10.988;2022-11-24T05:04:10;10.13;;;3.10;;
261;SDS011;114;48.260;10.988;2022-11-24T05:06:38;4.30;;;2.20;;
261;SDS011;114;48.260;10.988;2022-11-24T05:09:06;6.13;;;1.67;;
261;SDS011;114;48.260;10.988;2022-11-24T05:11:33;5.80;;;1.67;;
261;SDS011;114;48.260;10.988;2022-11-24T05:13:59;6.40;;;2.00;;
261;SDS011;114;48.260;10.988;2022-11-24T05:16:26;5.43;;;1.43;;
261;SDS011;114;48.260;10.988;2022-11-24T05:18:52;7.10;;;1.60;;
261;SDS011;114;48.260;10.988;2022-11-24T05:21:18;6.97;;;1.90;;
261;SDS011;114;48.260;10.988;2022-11-24T05:23:45;3.40;;;2.00;;
261;SDS011;114;48.260;10.988;2022-11-24T05:26:10;8.60;;;2.07;;
261;SDS011;114;48.260;10.988;2022-11-24T05:28:36;6.57;;;1.83;;
261;SDS011;114;48.260;10.988;2022-11-24T05:31:02;7.90;;;1.80;;
261;SDS011;114;48.260;10.988;2022-11-24T05:33:30;8.40;;;2.40;;
261;SDS011;114;48.260;10.988;2022-11-24T05:36:06;13.27;;;2.33;;
261;SDS011;114;48.260;10.988;2022-11-24T05:38:32;8.60;;;2.17;;
261;SDS011;114;48.260;10.988;2022-11-24T05:41:11;5.73;;;1.70;;
261;SDS011;114;48.260;10.988;2022-11-24T05:43:36;14.23;;;2.17;;
261;SDS011;114;48.260;10.988;2022-11-24T05:46:02;6.10;;;2.10;;
261;SDS011;114;48.260;10.988;2022-11-24T05:48:28;16.23;;;4.53;;
261;SDS011;114;48.260;10.988;2022-11-24T05:50:54;14.87;;;2.50;;
261;SDS011;114;48.260;10.988;2022-11-24T05:53:21;22.40;;;2.90;;
261;SDS011;114;48.260;10.988;2022-11-24T05:55:50;4.33;;;1.60;;
261;SDS011;114;48.260;10.988;2022-11-24T05:58:17;7.70;;;1.87;;
261;SDS011;114;48.260;10.988;2022-11-24T06:00:49;5.73;;;1.20;;
261;SDS011;114;48.260;10.988;2022-11-24T06:03:16;7.70;;;1.70;;
261;SDS011;114;48.260;10.988;2022-11-24T06:05:44;7.00;;;1.33;;
261;SDS011;114;48.260;10.988;2022-11-24T06:08:19;10.70;;;1.73;;
261;SDS011;114;48.260;10.988;2022-11-24T06:13:15;3.83;;;2.07;;
261;SDS011;114;48.260;10.988;2022-11-24T06:15:42;11.07;;;3.07;;
261;SDS011;114;48.260;10.988;2022-11-24T06:18:09;12.33;;;2.20;;
261;SDS011;114;48.260;10.988;2022-11-24T06:20:39;12.60;;;2.60;;
261;SDS011;114;48.260;10.988;2022-11-24T06:23:04;6.70;;;1.60;;
261;SDS011;114;48.260;10.988;2022-11-24T06:25:32;10.90;;;2.60;;
261;SDS011;114;48.260;10.988;2022-11-24T06:27:59;8.80;;;2.40;;
261;SDS011;114;48.260;10.988;2022-11-24T06:30:27;11.50;;;2.80;;
261;SDS011;114;48.260;10.988;2022-11-24T06:32:54;7.30;;;1.57;;
261;SDS011;114;48.260;10.988;2022-11-24T06:35:20;7.90;;;1.87;;
261;SDS011;114;48.260;10.988;2022-11-24T06:37:45;11.87;;;2.03;;
261;SDS011;114;48.260;10.988;2022-11-24T06:40:11;9.80;;;2.03;;
261;SDS011;114;48.260;10.988;2022-11-24T06:42:38;7.87;;;1.80;;
261;SDS011;114;48.260;10.988;2022-11-24T06:45:03;9.90;;;2.17;;
261;SDS011;114;48.260;10.988;2022-11-24T06:47:29;8.57;;;1.60;;
261;SDS011;114;48.260;10.988;2022-11-24T06:49:55;13.77;;;2.43;;
261;SDS011;114;48.260;10.988;2022-11-24T06:52:22;8.73;;;2.00;;
261;SDS011;114;48.260;10.988;2022-11-24T06:54:47;9.00;;;1.80;;
261;SDS011;114;48.260;10.988;2022-11-24T06:57:13;22.73;;;2.50;;
261;SDS011;114;48.260;10.988;2022-11-24T06:59:39;6.03;;;1.87;;
261;SDS011;114;48.260;10.988;2022-11-24T07:02:05;11.83;;;2.57;;
261;SDS011;114;48.260;10.988;2022-11-24T07:04:30;7.83;;;2.57;;
261;SDS011;114;48.260;10.988;2022-11-24T07:06:56;3.47;;;1.63;;
261;SDS011;114;48.260;10.988;2022-11-24T07:09:22;7.57;;;2.30;;
261;SDS011;114;48.260;10.988;2022-11-24T07:11:47;9.67;;;2.33;;
261;SDS011;114;48.260;10.988;2022-11-24T07:14:14;9.90;;;3.50;;
261;SDS011;114;48.260;10.988;2022-11-24T07:16:40;6.27;;;2.27;;
261;SDS011;114;48.260;10.988;2022-11-24T07:19:07;7.70;;;2.00;;
261;SDS011;114;48.260;10.988;2022-11-24T07:21:34;7.70;;;2.00;;
261;SDS011;114;48.260;10.988;2022-11-24T07:24:00;7.60;;;1.83;;
261;SDS011;114;48.260;10.988;2022-11-24T07:26:26;7.10;;;2.70;;
261;SDS011;114;48.260;10.988;2022-11-24T07:28:52;13.40;;;1.70;;
261;SDS011;114;48.260;10.988;2022-11-24T07:31:19;4.87;;;1.23;;
261;SDS011;114;48.260;10.988;2022-11-24T07:33:49;11.50;;;1.43;;
261;SDS011;114;48.260;10.988;2022-11-24T07:36:17;4.13;;;1.47;;
261;SDS011;114;48.260;10.988;2022-11-24T07:38:43;4.10;;;1.57;;
261;SDS011;114;48.260;10.988;2022-11-24T07:41:10;7.33;;;1.63;;
261;SDS011;114;48.260;10.988;2022-11-24T07:43:37;7.43;;;1.53;;
261;SDS011;114;48.260;10.988;2022-11-24T07:46:04;4.60;;;1.30;;
261;SDS011;114;48.260;10.988;2022-11-24T07:48:31;2.13;;;1.27;;
261;SDS011;114;48.260;10.988;2022-11-24T07:50:58;6.03;;;1.70;;
261;SDS011;114;48.260;10.988;2022-11-24T07:53:24;4.63;;;1.33;;
261;SDS011;114;48.260;10.988;2022-11-24T07:55:54;10.50;;;1.80;;
261;SDS011;114;48.260;10.988;2022-11-24T07:58:21;11.90;;;2.27;;
261;SDS011;114;48.260;10.988;2022-11-24T08:00:47;4.40;;;1.60;;
261;SDS011;114;48.260;10.988;2022-11-24T08:03:14;7.90;;;2.60;;
261;SDS011;114;48.260;10.988;2022-11-24T08:05:41;8.63;;;2.00;;
261;SDS011;114;48.260;10.988;2022-11-24T08:08:07;5.60;;;1.70;;
261;SDS011;114;48.260;10.988;2022-11-24T08:10:33;5.03;;;1.33;;
261;SDS011;114;48.260;10.988;2022-11-24T08:12:59;6.60;;;1.80;;
261;SDS011;114;48.260;10.988;2022-11-24T08:15:25;4.10;;;1.23;;
261;SDS011;114;48.260;10.988;2022-11-24T08:17:53;8.53;;;0.83;;
261;SDS011;114;48.260;10.988;2022-11-24T08:20:19;5.83;;;1.40;;
261;SDS011;114;48.260;10.988;2022-11-24T08:22:45;7.27;;;1.50;;
261;SDS011;114;48.260;10.988;2022-11-24T08:25:12;8.17;;;1.43;;
261;SDS011;114;48.260;10.988;2022-11-24T08:27:40;9.80;;;1.97;;
261;SDS011;114;48.260;10.988;2022-11-24T08:30:06;3.40;;;1.50;;
261;SDS011;114;48.260;10.988;2022-11-24T08:32:33;6.03;;;1.83;;
261;SDS011;114;48.260;10.988;2022-11-24T08:34:59;8.40;;;1.87;;
261;SDS011;114;48.260;10.988;2022-11-24T08:37:25;5.27;;;1.60;;
261;SDS011;114;48.260;10.988;2022-11-24T08:39:51;4.33;;;1.70;;
261;SDS011;114;48.260;10.988;2022-11-24T08:42:17;7.60;;;1.07;;
261;SDS011;114;48.260;10.988;2022-11-24T08:44:44;5.83;;;1.90;;
261;SDS011;114;48.260;10.988;2022-11-24T08:47:11;2.50;;;1.10;;
261;SDS011;114;48.260;10.988;2022-11-24T08:49:39;11.03;;;2.10;;
261;SDS011;114;48.260;10.988;2022-11-24T08:52:05;9.73;;;3.07;;
261;SDS011;114;48.260;10.988;2022-11-24T08:54:32;3.60;;;1.83;;
261;SDS011;114;48.260;10.988;2022-11-24T08:56:59;3.83;;;1.80;;
261;SDS011;114;48.260;10.988;2022-11-24T08:59:24;4.60;;;1.80;;
261;SDS011;114;48.260;10.988;2022-11-24T09:01:50;6.87;;;1.43;;
261;SDS011;114;48.260;10.988;2022-11-24T09:04:16;6.27;;;1.90;;
261;SDS011;114;48.260;10.988;2022-11-24T09:09:11;8.73;;;2.30;;
261;SDS011;114;48.260;10.988;2022-11-24T09:11:37;18.07;;;2.40;;
261;SDS011;114;48.260;10.988;2022-11-24T09:14:03;1.87;;;0.90;;
261;SDS011;114;48.260;10.988;2022-11-24T09:16:30;6.90;;;1.50;;
261;SDS011;114;48.260;10.988;2022-11-24T09:19:02;7.60;;;1.40;;
261;SDS011;114;48.260;10.988;2022-11-24T09:21:30;6.47;;;1.23;;
261;SDS011;114;48.260;10.988;2022-11-24T09:24:00;8.03;;;1.80;;
261;SDS011;114;48.260;10.988;2022-11-24T09:26:27;6.83;;;1.47;;
261;SDS011;114;48.260;10.988;2022-11-24T09:28:56;27.23;;;2.00;;
261;SDS011;114;48.260;10.988;2022-11-24T09:31:24;10.00;;;2.50;;
261;SDS011;114;48.260;10.988;2022-11-24T09:33:51;4.40;;;1.23;;
261;SDS011;114;48.260;10.988;2022-11-24T09:36:18;3.87;;;1.70;;
261;SDS011;114;48.260;10.988;2022-11-24T09:38:46;8.17;;;1.83;;
261;SDS011;114;48.260;10.988;2022-11-24T09:41:20;6.87;;;1.90;;
261;SDS011;114;48.260;10.988;2022-11-24T09:46:56;6.50;;;1.57;;
261;SDS011;114;48.260;10.988;2022-11-24T09:49:49;5.23;;;1.37;;
261;SDS011;114;48.260;10.988;2022-11-24T09:55:20;5.63;;;2.00;;
261;SDS011;114;48.260;10.988;2022-11-24T09:58:36;2.87;;;1.73;;
261;SDS011;114;48.260;10.988;2022-11-24T10:01:13;8.50;;;3.07;;
261;SDS011;114;48.260;10.988;2022-11-24T10:03:44;8.53;;;2.67;;
261;SDS011;114;48.260;10.988;2022-11-24T10:06:18;9.30;;;1.80;;
261;SDS011;114;48.260;10.988;2022-11-24T10:23:15;5.57;;;1.20;;
261;SDS011;114;48.260;10.988;2022-11-24T10:26:19;6.07;;;1.80;;
261;SDS011;114;48.260;10.988;2022-11-24T10:28:54;5.00;;;1.70;;
261;SDS011;114;48.260;10.988;2022-11-24T10:33:52;4.37;;;2.13;;
261;SDS011;114;48.260;10.988;2022-11-24T10:36:20;11.70;;;3.47;;
261;SDS011;114;48.260;10.988;2022-11-24T10:41:52;7.93;;;1.43;;
261;SDS011;114;48.260;10.988;2022-11-24T10:44:30;6.60;;;1.93;;
261;SDS011;114;48.260;10.988;2022-11-24T10:47:02;3.93;;;1.27;;
261;SDS011;114;48.260;10.988;2022-11-24T10:49:31;4.00;;;1.70;;
261;SDS011;114;48.260;10.988;2022-11-24T10:52:13;4.33;;;2.20;;
261;SDS011;114;48.260;10.988;2022-11-24T10:54:57;5.90;;;1.93;;
261;SDS011;114;48.260;10.988;2022-11-24T10:57:27;9.80;;;2.03;;
261;SDS011;114;48.260;10.988;2022-11-24T10:59:59;5.47;;;1.17;;
261;SDS011;114;48.260;10.988;2022-11-24T11:02:36;5.70;;;1.40;;
261;SDS011;114;48.260;10.988;2022-11-24T11:10:51;7.37;;;1.60;;
261;SDS011;114;48.260;10.988;2022-11-24T11:13:34;2.97;;;1.27;;
261;SDS011;114;48.260;10.988;2022-11-24T11:16:00;4.80;;;2.20;;
261;SDS011;114;48.260;10.988;2022-11-24T11:21:36;6.30;;;2.97;;
261;SDS011;114;48.260;10.988;2022-11-24T11:24:04;11.53;;;5.73;;
261;SDS011;114;48.260;10.988;2022-11-24T11:26:43;5.50;;;2.93;;
261;SDS011;114;48.260;10.988;2022-11-24T11:29:16;6.10;;;4.10;;
261;SDS011;114;48.260;10.988;2022-11-24T11:31:54;8.70;;;4.63;;
261;SDS011;114;48.260;10.988;2022-11-24T11:34:34;9.60;;;5.00;;
261;SDS011;114;48.260;10.988;2022-11-24T11:37:02;13.20;;;5.00;;
261;SDS011;114;48.260;10.988;2022-11-24T11:39:30;3.53;;;2.30;;
261;SDS011;114;48.260;10.988;2022-11-24T11:42:02;4.33;;;1.40;;
261;SDS011;114;48.260;10.988;2022-11-24T11:44:33;5.37;;;2.17;;
261;SDS011;114;48.260;10.988;2022-11-24T11:47:23;6.80;;;2.30;;
261;SDS011;114;48.260;10.988;2022-11-24T11:50:14;3.40;;;1.70;;
261;SDS011;114;48.260;10.988;2022-11-24T11:55:30;3.67;;;2.10;;
261;SDS011;114;48.260;10.988;2022-11-24T12:01:13;16.30;;;3.80;;
261;SDS011;114;48.260;10.988;2022-11-24T12:06:26;3.90;;;2.20;;
261;SDS011;114;48.260;10.988;2022-11-24T12:18:27;6.93;;;2.77;;
261;SDS011;114;48.260;10.988;2022-11-24T12:21:12;5.30;;;2.10;;
261;SDS011;114;48.260;10.988;2022-11-24T12:26:54;2.00;;;1.90;;
261;SDS011;114;48.260;10.988;2022-11-24T12:37:59;16.33;;;2.17;;
261;SDS011;114;48.260;10.988;2022-11-24T12:40:57;8.33;;;3.97;;
261;SDS011;114;48.260;10.988;2022-11-24T12:43:50;8.50;;;4.27;;
261;SDS011;114;48.260;10.988;2022-11-24T12:52:30;4.40;;;2.70;;
261;SDS011;114;48.260;10.988;2022-11-24T12:54:59;3.03;;;1.90;;
261;SDS011;114;48.260;10.988;2022-11-24T12:57:29;5.77;;;3.10;;
261;SDS011;114;48.260;10.988;2022-11-24T13:00:21;5.23;;;2.23;;
261;SDS011;114;48.260;10.988;2022-11-24T13:05:56;8.13;;;4.07;;
261;SDS011;114;48.260;10.988;2022-11-24T13:08:29;11.00;;;3.40;;
261;SDS011;114;48.260;10.988;2022-11-24T13:16:24;2.37;;;1.37;;
261;SDS011;114;48.260;10.988;2022-11-24T13:18:54;4.40;;;1.50;;
261;SDS011;114;48.260;10.988;2022-11-24T13:29:41;6.10;;;4.30;;
261;SDS011;114;48.260;10.988;2022-11-24T13:39:54;5.40;;;3.57;;
261;SDS011;114;48.260;10.988;2022-11-24T13:42:22;2.57;;;1.97;;
261;SDS011;114;48.260;10.988;2022-11-24T13:44:57;4.83;;;2.00;;
261;SDS011;114;48.260;10.988;2022-11-24T13:49:56;5.27;;;1.80;;
261;SDS011;114;48.260;10.988;2022-11-24T13:58:45;5.50;;;1.70;;
261;SDS011;114;48.260;10.988;2022-11-24T14:03:35;1.03;;;0.90;;
261;SDS011;114;48.260;10.988;2022-11-24T14:06:12;3.57;;;1.10;;
261;SDS011;114;48.260;10.988;2022-11-24T14:08:45;2.40;;;0.97;;
261;SDS011;114;48.260;10.988;2022-11-24T14:11:13;8.80;;;2.80;;
261;SDS011;114;48.260;10.988;2022-11-24T14:13:41;7.10;;;3.00;;
261;SDS011;114;48.260;10.988;2022-11-24T14:18:41;28.23;;;11.67;;
261;SDS011;114;48.260;10.988;2022-11-24T14:21:29;16.80;;;8.30;;
261;SDS011;114;48.260;10.988;2022-11-24T14:24:01;25.10;;;9.80;;
261;SDS011;114;48.260;10.988;2022-11-24T14:26:45;17.13;;;11.50;;
261;SDS011;114;48.260;10.988;2022-11-24T14:29:13;8.83;;;5.10;;
261;SDS011;114;48.260;10.988;2022-11-24T14:31:41;5.27;;;1.80;;
261;SDS011;114;48.260;10.988;2022-11-24T14:34:17;3.73;;;2.67;;
261;SDS011;114;48.260;10.988;2022-11-24T14:36:46;10.83;;;3.00;;
261;SDS011;114;48.260;10.988;2022-11-24T14:39:17;5.20;;;2.90;;
261;SDS011;114;48.260;10.988;2022-11-24T14:42:00;9.07;;;2.70;;
261;SDS011;114;48.260;10.988;2022-11-24T14:44:48;2.77;;;2.50;;
261;SDS011;114;48.260;10.988;2022-11-24T14:47:43;8.33;;;3.87;;
261;SDS011;114;48.260;10.988;2022-11-24T14:50:14;6.33;;;2.47;;
261;SDS011;114;48.260;10.988;2022-11-24T14:52:53;3.53;;;2.33;;
261;SDS011;114;48.260;10.988;2022-11-24T14:55:24;4.00;;;2.23;;
261;SDS011;114;48.260;10.988;2022-11-24T14:57:56;2.93;;;1.50;;
261;SDS011;114;48.260;10.988;2022-11-24T15:00:29;7.40;;;3.30;;
261;SDS011;114;48.260;10.988;2022-11-24T15:05:48;7.10;;;4.10;;
261;SDS011;114;48.260;10.988;2022-11-24T15:08:17;4.67;;;3.60;;
261;SDS011;114;48.260;10.988;2022-11-24T15:10:43;6.47;;;4.20;;
261;SDS011;114;48.260;10.988;2022-11-24T15:13:19;5.07;;;3.00;;
261;SDS011;114;48.260;10.988;2022-11-24T15:18:47;7.50;;;3.83;;
261;SDS011;114;48.260;10.988;2022-11-24T15:21:30;15.17;;;8.20;;
261;SDS011;114;48.260;10.988;2022-11-24T15:24:17;13.80;;;7.27;;
261;SDS011;114;48.260;10.988;2022-11-24T15:26:43;13.57;;;6.47;;
261;SDS011;114;48.260;10.988;2022-11-24T15:29:10;23.37;;;7.40;;
261;SDS011;114;48.260;10.988;2022-11-24T15:31:40;11.03;;;6.47;;
261;SDS011;114;48.260;10.988;2022-11-24T15:34:08;27.23;;;11.63;;
261;SDS011;114;48.260;10.988;2022-11-24T15:36:39;9.13;;;5.70;;
261;SDS011;114;48.260;10.988;2022-11-24T15:39:04;12.60;;;8.80;;
261;SDS011;114;48.260;10.988;2022-11-24T15:41:30;8.33;;;3.50;;
261;SDS011;114;48.260;10.988;2022-11-24T15:43:58;8.20;;;3.30;;
261;SDS011;114;48.260;10.988;2022-11-24T15:46:25;2.93;;;2.10;;
261;SDS011;114;48.260;10.988;2022-11-24T15:48:52;7.33;;;2.47;;
261;SDS011;114;48.260;10.988;2022-11-24T15:51:19;9.03;;;3.33;;
261;SDS011;114;48.260;10.988;2022-11-24T15:53:47;5.63;;;2.87;;
261;SDS011;114;48.260;10.988;2022-11-24T15:56:37;3.87;;;3.40;;
261;SDS011;114;48.260;10.988;2022-11-24T15:59:13;6.10;;;2.43;;
261;SDS011;114;48.260;10.988;2022-11-24T16:01:40;5.90;;;2.83;;
261;SDS011;114;48.260;10.988;2022-11-24T16:04:08;3.80;;;2.07;;
261;SDS011;114;48.260;10.988;2022-11-24T16:06:37;11.90;;;2.60;;
261;SDS011;114;48.260;10.988;2022-11-24T16:09:03;9.13;;;4.80;;
261;SDS011;114;48.260;10.988;2022-11-24T16:11:30;5.50;;;5.00;;
261;SDS011;114;48.260;10.988;2022-11-24T16:13:56;9.90;;;5.40;;
261;SDS011;114;48.260;10.988;2022-11-24T16:16:23;13.60;;;4.10;;
261;SDS011;114;48.260;10.988;2022-11-24T16:18:49;13.13;;;4.60;;
261;SDS011;114;48.260;10.988;2022-11-24T16:21:15;10.30;;;5.10;;
261;SDS011;114;48.260;10.988;2022-11-24T16:23:41;11.97;;;4.97;;
261;SDS011;114;48.260;10.988;2022-11-24T16:26:08;13.20;;;3.70;;
261;SDS011;114;48.260;10.988;2022-11-24T16:28:35;18.13;;;4.90;;
261;SDS011;114;48.260;10.988;2022-11-24T16:31:01;9.37;;;4.77;;
261;SDS011;114;48.260;10.988;2022-11-24T16:33:27;12.60;;;4.47;;
261;SDS011;114;48.260;10.988;2022-11-24T16:35:53;4.73;;;4.00;;
261;SDS011;114;48.260;10.988;2022-11-24T16:38:19;11.60;;;4.50;;
261;SDS011;114;48.260;10.988;2022-11-24T16:40:54;8.03;;;4.10;;
261;SDS011;114;48.260;10.988;2022-11-24T16:43:20;11.27;;;4.90;;
261;SDS011;114;48.260;10.988;2022-11-24T16:46:20;9.97;;;4.83;;
261;SDS011;114;48.260;10.988;2022-11-24T16:48:39;6.17;;;4.77;;
261;SDS011;114;48.260;10.988;2022-11-24T16:51:06;7.77;;;4.00;;
261;SDS011;114;48.260;10.988;2022-11-24T16:53:35;7.90;;;3.90;;
261;SDS011;114;48.260;10.988;2022-11-24T16:56:02;7.00;;;3.80;;
261;SDS011;114;48.260;10.988;2022-11-24T16:58:28;7.40;;;4.30;;
261;SDS011;114;48.260;10.988;2022-11-24T17:00:53;11.83;;;4.17;;
261;SDS011;114;48.260;10.988;2022-11-24T17:03:19;6.10;;;3.73;;
261;SDS011;114;48.260;10.988;2022-11-24T17:05:58;6.07;;;3.60;;
261;SDS011;114;48.260;10.988;2022-11-24T17:08:24;9.17;;;5.43;;
261;SDS011;114;48.260;10.988;2022-11-24T17:10:50;8.67;;;5.57;;
261;SDS011;114;48.260;10.988;2022-11-24T17:13:17;9.23;;;5.90;;
261;SDS011;114;48.260;10.988;2022-11-24T17:15:43;12.37;;;7.20;;
261;SDS011;114;48.260;10.988;2022-11-24T17:18:08;11.33;;;7.40;;
261;SDS011;114;48.260;10.988;2022-11-24T17:20:34;31.13;;;18.63;;
261;SDS011;114;48.260;10.988;2022-11-24T17:23:01;27.23;;;8.40;;
261;SDS011;114;48.260;10.988;2022-11-24T17:25:26;11.23;;;6.93;;
261;SDS011;114;48.260;10.988;2022-11-24T17:27:52;11.87;;;6.80;;
261;SDS011;114;48.260;10.988;2022-11-24T17:30:18;13.67;;;5.90;;
261;SDS011;114;48.260;10.988;2022-11-24T17:32:44;11.03;;;4.83;;
261;SDS011;114;48.260;10.988;2022-11-24T17:35:11;10.30;;;5.03;;
261;SDS011;114;48.260;10.988;2022-11-24T17:37:39;5.83;;;4.70;;
261;SDS011;114;48.260;10.988;2022-11-24T17:40:05;13.43;;;4.73;;
261;SDS011;114;48.260;10.988;2022-11-24T17:42:31;12.37;;;4.80;;
261;SDS011;114;48.260;10.988;2022-11-24T17:44:57;8.73;;;3.83;;
261;SDS011;114;48.260;10.988;2022-11-24T17:47:23;10.10;;;4.57;;
261;SDS011;114;48.260;10.988;2022-11-24T17:49:50;11.60;;;4.60;;
261;SDS011;114;48.260;10.988;2022-11-24T17:52:17;10.07;;;4.63;;
261;SDS011;114;48.260;10.988;2022-11-24T17:54:43;6.83;;;3.83;;